Time;durP1;ratioP1;P1;durP2;ratioP2;P2;SDS_P1;SDS_P2;PMS_P1;PMS_P2;Temp;Humidity;BMP_temperature;BMP_pressure;BME280_temperature;BME280_humidity;BME280_pressure;Samples;Min_cycle;Max_cycle;Signal;HPM_P1;HPM_P2
2023/08/02 00:00:33;;;;;;;4.00;1.90;;;;;;;;;;5037112;28;20072;-72
2023/08/02 00:03:18;;;;;;;2.58;1.55;;;;;;;;;;5033995;28;20110;-72
2023/08/02 00:06:03;;;;;;;4.32;1.70;;;;;;;;;;5052667;28;20037;-70
2023/08/02 00:08:48;;;;;;;8.93;2.08;;;;;;;;;;5053092;28;20494;-72
2023/08/02 00:11:34;;;;;;;8.45;1.88;;;;;;;;;;5053851;28;20037;-70
2023/08/02 00:14:19;;;;;;;3.33;1.60;;;;;;;;;;5053252;28;20035;-75
2023/08/02 00:17:04;;;;;;;3.58;1.50;;;;;;;;;;5051358;28;20020;-69
2023/08/02 00:19:49;;;;;;;5.60;1.60;;;;;;;;;;5053026;28;20064;-68
2023/08/02 00:22:35;;;;;;;3.08;1.65;;;;;;;;;;5050302;28;20125;-70
2023/08/02 00:25:20;;;;;;;4.78;1.77;;;;;;;;;;5030345;28;20062;-69
2023/08/02 00:28:05;;;;;;;4.28;1.85;;;;;;;;;;5052597;28;20614;-69
2023/08/02 00:30:50;;;;;;;3.17;1.50;;;;;;;;;;5042472;28;20119;-68
2023/08/02 00:33:35;;;;;;;3.78;1.75;;;;;;;;;;5052255;28;20060;-70
2023/08/02 00:36:21;;;;;;;5.30;1.50;;;;;;;;;;5046800;28;20493;-71
2023/08/02 00:39:07;;;;;;;8.23;1.67;;;;;;;;;;5054177;28;20039;-71
2023/08/02 00:41:52;;;;;;;5.32;1.67;;;;;;;;;;5050245;28;20048;-71
2023/08/02 00:44:37;;;;;;;3.00;1.63;;;;;;;;;;5053504;28;20383;-71
2023/08/02 00:47:24;;;;;;;3.80;1.88;;;;;;;;;;5050653;28;20055;-72
2023/08/02 00:50:09;;;;;;;3.17;1.75;;;;;;;;;;5050285;28;20071;-71
2023/08/02 00:52:54;;;;;;;5.38;1.92;;;;;;;;;;5052251;28;20047;-68
2023/08/02 00:55:40;;;;;;;8.52;2.25;;;;;;;;;;5047820;28;20466;-70
2023/08/02 00:58:25;;;;;;;4.28;1.92;;;;;;;;;;5053613;28;20032;-70
2023/08/02 01:01:10;;;;;;;3.20;1.45;;;;;;;;;;5041917;28;20029;-71
2023/08/02 01:03:56;;;;;;;3.38;1.70;;;;;;;;;;5048329;28;20531;-71
2023/08/02 01:06:44;;;;;;;4.93;2.03;;;;;;;;;;5052848;28;20029;-70
2023/08/02 01:09:34;;;;;;;3.35;1.75;;;;;;;;;;5047304;28;20017;-73
2023/08/02 01:12:21;;;;;;;6.05;1.80;;;;;;;;;;5041269;28;20532;-69
2023/08/02 01:15:06;;;;;;;6.55;3.40;;;;;;;;;;5052216;28;20082;-71
2023/08/02 01:17:52;;;;;;;4.45;2.58;;;;;;;;;;5049926;28;20648;-69
2023/08/02 01:20:37;;;;;;;6.57;2.35;;;;;;;;;;5054192;28;20032;-68
2023/08/02 01:23:22;;;;;;;7.05;2.60;;;;;;;;;;5056692;28;20036;-68
2023/08/02 01:26:07;;;;;;;3.08;2.33;;;;;;;;;;5052677;28;20119;-67
2023/08/02 01:28:54;;;;;;;4.35;2.40;;;;;;;;;;5030505;28;20032;-73
2023/08/02 01:31:41;;;;;;;4.57;2.00;;;;;;;;;;5032283;28;20034;-72
2023/08/02 01:34:27;;;;;;;4.65;2.15;;;;;;;;;;5055172;28;20087;-71
2023/08/02 01:37:12;;;;;;;4.35;1.80;;;;;;;;;;5042831;28;20042;-72
2023/08/02 01:39:57;;;;;;;6.10;2.00;;;;;;;;;;5045688;28;20055;-72
2023/08/02 01:42:42;;;;;;;2.97;1.50;;;;;;;;;;5055600;28;20027;-71
2023/08/02 01:45:27;;;;;;;4.72;2.10;;;;;;;;;;5053279;28;20035;-72
2023/08/02 01:48:13;;;;;;;4.13;1.90;;;;;;;;;;5055050;28;20039;-74
2023/08/02 01:50:58;;;;;;;3.78;1.80;;;;;;;;;;5043933;28;20032;-69
2023/08/02 01:53:43;;;;;;;4.85;1.88;;;;;;;;;;5055247;28;20043;-71
2023/08/02 01:56:28;;;;;;;6.45;1.75;;;;;;;;;;5056428;28;20567;-70
2023/08/02 01:59:13;;;;;;;3.88;1.60;;;;;;;;;;5055581;28;20050;-69
2023/08/02 02:01:59;;;;;;;3.80;1.80;;;;;;;;;;5056149;28;20040;-70
2023/08/02 02:04:44;;;;;;;6.72;1.80;;;;;;;;;;5047605;28;20032;-71
2023/08/02 02:07:29;;;;;;;5.30;2.15;;;;;;;;;;5055144;28;20371;-75
2023/08/02 02:10:14;;;;;;;2.05;1.40;;;;;;;;;;5051827;28;20067;-75
2023/08/02 02:13:00;;;;;;;3.95;2.15;;;;;;;;;;5040892;28;20728;-76
2023/08/02 02:15:45;;;;;;;2.58;1.65;;;;;;;;;;5042553;28;20032;-75
2023/08/02 02:18:30;;;;;;;5.93;1.70;;;;;;;;;;5044666;28;20036;-75
2023/08/02 02:21:16;;;;;;;2.55;1.65;;;;;;;;;;5046283;28;20052;-75
2023/08/02 02:24:01;;;;;;;7.13;2.20;;;;;;;;;;5050139;28;20361;-76
2023/08/02 02:26:46;;;;;;;2.58;1.77;;;;;;;;;;5047321;28;20044;-72
2023/08/02 02:29:31;;;;;;;3.00;1.85;;;;;;;;;;5051601;28;20028;-73
2023/08/02 02:32:17;;;;;;;3.45;2.22;;;;;;;;;;5051117;28;20033;-72
2023/08/02 02:35:03;;;;;;;7.63;1.95;;;;;;;;;;5052293;28;20085;-72
2023/08/02 02:37:48;;;;;;;5.00;2.35;;;;;;;;;;5050053;28;20123;-72
2023/08/02 02:40:33;;;;;;;3.42;1.63;;;;;;;;;;5055790;28;20036;-72
2023/08/02 02:43:18;;;;;;;4.45;2.35;;;;;;;;;;5051413;28;20024;-74
2023/08/02 02:46:04;;;;;;;3.70;1.95;;;;;;;;;;5050876;28;20039;-69
2023/08/02 02:48:49;;;;;;;10.38;2.40;;;;;;;;;;5052424;28;20032;-70
2023/08/02 02:51:34;;;;;;;4.32;2.10;;;;;;;;;;5060284;28;20041;-71
2023/08/02 02:54:19;;;;;;;4.00;2.05;;;;;;;;;;5052190;28;20059;-74
2023/08/02 02:57:05;;;;;;;6.07;2.10;;;;;;;;;;5044756;28;20043;-70
2023/08/02 02:59:51;;;;;;;3.72;2.03;;;;;;;;;;5051820;28;20028;-70
2023/08/02 03:02:36;;;;;;;5.07;2.25;;;;;;;;;;5047049;28;20028;-70
2023/08/02 03:05:21;;;;;;;5.55;2.03;;;;;;;;;;5053271;28;20036;-70
2023/08/02 03:08:06;;;;;;;7.35;2.05;;;;;;;;;;5037791;28;20507;-70
2023/08/02 03:10:51;;;;;;;8.23;2.22;;;;;;;;;;5048337;28;20151;-70
2023/08/02 03:13:37;;;;;;;3.50;1.90;;;;;;;;;;5049742;28;20029;-69
2023/08/02 03:16:22;;;;;;;3.40;1.92;;;;;;;;;;5034610;28;20029;-69
2023/08/02 03:19:07;;;;;;;7.00;2.15;;;;;;;;;;5050524;28;20064;-74
2023/08/02 03:21:52;;;;;;;2.92;1.75;;;;;;;;;;5051350;28;20677;-71
2023/08/02 03:24:37;;;;;;;5.60;2.50;;;;;;;;;;5048740;28;20044;-72
2023/08/02 03:27:23;;;;;;;5.03;2.08;;;;;;;;;;5049421;28;20034;-71
2023/08/02 03:30:08;;;;;;;2.63;1.55;;;;;;;;;;5049407;28;20379;-72
2023/08/02 03:32:54;;;;;;;5.28;1.80;;;;;;;;;;5048705;28;20439;-71
2023/08/02 03:35:39;;;;;;;3.40;1.48;;;;;;;;;;5050424;28;20055;-71
2023/08/02 03:38:24;;;;;;;1.88;1.48;;;;;;;;;;5050148;28;20032;-70
2023/08/02 03:41:09;;;;;;;4.50;1.85;;;;;;;;;;5051529;28;20559;-68
2023/08/02 03:43:54;;;;;;;3.00;1.60;;;;;;;;;;5051764;28;20043;-68
2023/08/02 03:46:40;;;;;;;7.07;1.98;;;;;;;;;;5051811;28;20094;-70
2023/08/02 03:49:25;;;;;;;3.40;1.50;;;;;;;;;;5048980;28;20547;-68
2023/08/02 03:52:10;;;;;;;4.10;1.70;;;;;;;;;;5054133;28;20135;-69
2023/08/02 03:54:56;;;;;;;3.63;1.40;;;;;;;;;;5048289;28;20086;-71
2023/08/02 03:57:41;;;;;;;4.65;1.60;;;;;;;;;;5050424;28;20037;-75
2023/08/02 04:00:26;;;;;;;3.10;1.73;;;;;;;;;;5051335;28;20415;-70
2023/08/02 04:03:11;;;;;;;4.90;2.03;;;;;;;;;;5047240;28;20036;-68
2023/08/02 04:05:57;;;;;;;8.02;2.50;;;;;;;;;;5047665;28;20040;-68
2023/08/02 04:08:42;;;;;;;5.65;2.97;;;;;;;;;;5060242;28;20032;-70
2023/08/02 04:11:27;;;;;;;7.45;2.38;;;;;;;;;;5049110;28;20479;-71
2023/08/02 04:14:12;;;;;;;3.97;2.08;;;;;;;;;;5035157;28;20044;-75
2023/08/02 04:16:58;;;;;;;6.78;1.83;;;;;;;;;;5057247;28;20035;-72
2023/08/02 04:19:43;;;;;;;2.95;1.75;;;;;;;;;;5047360;28;20349;-72
2023/08/02 04:22:31;;;;;;;7.20;2.55;;;;;;;;;;5050125;28;20056;-72
2023/08/02 04:25:17;;;;;;;3.83;1.73;;;;;;;;;;5052861;28;20020;-75
2023/08/02 04:28:02;;;;;;;4.07;1.90;;;;;;;;;;5051920;28;20494;-72
2023/08/02 04:30:51;;;;;;;3.25;2.05;;;;;;;;;;5035961;28;20107;-72
2023/08/02 04:33:36;;;;;;;7.85;1.80;;;;;;;;;;5048223;28;20060;-71
2023/08/02 04:36:21;;;;;;;5.55;2.10;;;;;;;;;;5044598;28;20107;-70
2023/08/02 04:39:07;;;;;;;3.08;1.67;;;;;;;;;;5048445;28;20116;-69
2023/08/02 04:41:53;;;;;;;5.30;1.90;;;;;;;;;;5047299;28;20033;-71
2023/08/02 04:44:38;;;;;;;4.90;2.50;;;;;;;;;;5050095;28;20078;-70
2023/08/02 04:47:25;;;;;;;5.07;2.00;;;;;;;;;;5047821;28;20126;-69
2023/08/02 04:50:10;;;;;;;3.10;1.77;;;;;;;;;;5050106;28;20024;-71
2023/08/02 04:52:55;;;;;;;5.38;1.90;;;;;;;;;;5050824;28;20368;-74
2023/08/02 04:55:41;;;;;;;6.25;2.42;;;;;;;;;;5057961;28;20524;-73
2023/08/02 04:58:27;;;;;;;9.05;2.40;;;;;;;;;;5055414;28;20037;-72
2023/08/02 05:01:12;;;;;;;5.82;2.33;;;;;;;;;;5054871;28;20036;-72
2023/08/02 05:03:57;;;;;;;5.53;2.05;;;;;;;;;;5053941;28;20493;-72
2023/08/02 05:06:42;;;;;;;6.53;2.42;;;;;;;;;;5053846;28;20037;-73
2023/08/02 05:09:28;;;;;;;3.88;2.08;;;;;;;;;;5053266;28;20375;-72
2023/08/02 05:12:13;;;;;;;9.02;2.67;;;;;;;;;;5052490;28;20036;-70
2023/08/02 05:14:58;;;;;;;6.13;2.67;;;;;;;;;;5053310;28;20518;-72
2023/08/02 05:17:44;;;;;;;7.88;2.60;;;;;;;;;;5038058;28;20519;-71
2023/08/02 05:20:32;;;;;;;8.10;2.53;;;;;;;;;;5046724;28;20425;-69
2023/08/02 05:23:18;;;;;;;5.03;2.43;;;;;;;;;;5050732;28;20125;-70
2023/08/02 05:26:03;;;;;;;8.55;2.75;;;;;;;;;;5056427;28;20349;-70
2023/08/02 05:28:49;;;;;;;5.07;2.35;;;;;;;;;;5049615;28;20040;-70
2023/08/02 05:31:34;;;;;;;5.22;2.80;;;;;;;;;;5051223;28;20565;-71
2023/08/02 05:34:19;;;;;;;7.40;2.40;;;;;;;;;;5052503;28;20044;-74
2023/08/02 05:37:04;;;;;;;7.18;2.55;;;;;;;;;;5048671;28;20067;-72
2023/08/02 05:39:50;;;;;;;4.50;2.40;;;;;;;;;;5054064;28;20032;-73
2023/08/02 05:42:35;;;;;;;6.28;2.78;;;;;;;;;;5052339;28;20043;-69
2023/08/02 05:45:20;;;;;;;5.20;2.45;;;;;;;;;;5047155;28;20395;-74
2023/08/02 05:48:06;;;;;;;4.72;2.22;;;;;;;;;;5051074;28;20092;-71
2023/08/02 05:50:51;;;;;;;3.67;2.40;;;;;;;;;;5051514;28;20029;-74
2023/08/02 05:53:36;;;;;;;5.35;3.00;;;;;;;;;;5045170;28;20101;-76
2023/08/02 05:56:21;;;;;;;5.95;2.60;;;;;;;;;;5046667;28;20190;-74
2023/08/02 05:59:06;;;;;;;4.45;2.35;;;;;;;;;;5051862;28;20036;-74
2023/08/02 06:01:52;;;;;;;8.77;3.38;;;;;;;;;;5050859;28;20124;-76
2023/08/02 06:04:38;;;;;;;3.58;2.55;;;;;;;;;;5054287;28;20482;-74
2023/08/02 06:07:23;;;;;;;7.82;3.38;;;;;;;;;;5053041;28;20052;-74
2023/08/02 06:10:09;;;;;;;5.28;2.47;;;;;;;;;;5057312;28;20039;-74
2023/08/02 06:12:54;;;;;;;5.55;2.72;;;;;;;;;;5060747;28;20632;-73
2023/08/02 06:15:39;;;;;;;3.55;2.80;;;;;;;;;;5053731;28;20028;-74
2023/08/02 06:18:24;;;;;;;5.82;2.88;;;;;;;;;;5051102;28;20380;-73
2023/08/02 06:21:10;;;;;;;7.25;2.92;;;;;;;;;;5064400;28;20043;-73
2023/08/02 06:23:55;;;;;;;6.25;2.85;;;;;;;;;;5053915;28;20033;-70
2023/08/02 06:26:42;;;;;;;7.22;2.95;;;;;;;;;;5052307;28;20032;-73
2023/08/02 06:29:27;;;;;;;8.55;2.97;;;;;;;;;;5038277;28;20020;-73
2023/08/02 06:32:12;;;;;;;6.13;3.40;;;;;;;;;;5055860;28;20028;-72
2023/08/02 06:34:57;;;;;;;5.70;2.83;;;;;;;;;;5043988;28;20032;-74
2023/08/02 06:37:43;;;;;;;6.20;2.55;;;;;;;;;;5053953;28;20025;-74
2023/08/02 06:40:28;;;;;;;6.35;4.00;;;;;;;;;;5052368;28;20032;-78
2023/08/02 06:43:13;;;;;;;4.95;2.80;;;;;;;;;;5048636;28;20083;-72
2023/08/02 06:45:58;;;;;;;7.20;3.63;;;;;;;;;;5040299;22;20574;-71
2023/08/02 06:48:43;;;;;;;9.35;3.47;;;;;;;;;;5022054;28;20033;-70
2023/08/02 06:51:29;;;;;;;7.47;2.60;;;;;;;;;;5024465;28;20477;-69
2023/08/02 06:54:14;;;;;;;4.35;3.03;;;;;;;;;;5023512;28;20425;-69
2023/08/02 06:56:59;;;;;;;4.22;2.42;;;;;;;;;;5022994;28;20588;-70
2023/08/02 06:59:45;;;;;;;7.90;4.25;;;;;;;;;;5024503;28;20033;-70
2023/08/02 07:02:30;;;;;;;6.57;3.10;;;;;;;;;;5022946;28;20052;-75
2023/08/02 07:05:15;;;;;;;5.45;3.60;;;;;;;;;;5023203;28;20455;-78
2023/08/02 07:08:01;;;;;;;8.20;3.33;;;;;;;;;;5023535;28;20053;-77
2023/08/02 07:10:46;;;;;;;4.57;2.72;;;;;;;;;;5023380;28;20029;-74
2023/08/02 07:13:32;;;;;;;6.88;3.45;;;;;;;;;;5040940;28;20040;-77
2023/08/02 07:16:17;;;;;;;6.30;2.95;;;;;;;;;;5021525;28;20103;-74
2023/08/02 07:19:03;;;;;;;6.22;2.85;;;;;;;;;;5011300;28;20033;-73
2023/08/02 07:21:48;;;;;;;5.35;3.13;;;;;;;;;;5026371;28;20088;-71
2023/08/02 07:24:33;;;;;;;11.32;3.90;;;;;;;;;;5023382;28;20048;-70
2023/08/02 07:27:18;;;;;;;5.03;2.92;;;;;;;;;;5022470;28;20584;-69
2023/08/02 07:30:04;;;;;;;5.72;2.72;;;;;;;;;;5006038;28;20033;-67
2023/08/02 07:32:49;;;;;;;5.95;3.35;;;;;;;;;;5023949;28;20065;-70
2023/08/02 07:35:35;;;;;;;5.20;3.13;;;;;;;;;;5036587;28;20037;-68
2023/08/02 07:38:21;;;;;;;5.85;3.00;;;;;;;;;;5022848;28;20092;-84
2023/08/02 07:41:06;;;;;;;5.03;3.13;;;;;;;;;;5026946;28;20032;-70
2023/08/02 07:43:51;;;;;;;5.55;2.83;;;;;;;;;;5022953;28;20421;-70
2023/08/02 07:46:36;;;;;;;4.93;3.08;;;;;;;;;;5021392;28;20116;-71
2023/08/02 07:49:21;;;;;;;7.45;4.10;;;;;;;;;;5020458;28;20077;-71
2023/08/02 07:52:07;;;;;;;4.28;2.70;;;;;;;;;;5028644;28;20587;-72
2023/08/02 07:54:53;;;;;;;5.50;3.40;;;;;;;;;;5023101;28;20029;-75
2023/08/02 07:57:38;;;;;;;7.20;3.50;;;;;;;;;;5027253;28;20048;-82
2023/08/02 08:00:25;;;;;;;6.43;3.55;;;;;;;;;;5023948;28;20032;-81
2023/08/02 08:03:10;;;;;;;6.70;3.13;;;;;;;;;;5024821;28;20492;-81
2023/08/02 08:05:55;;;;;;;5.72;3.22;;;;;;;;;;5018363;28;20076;-78
2023/08/02 08:08:41;;;;;;;6.05;2.90;;;;;;;;;;5024444;28;20044;-77
2023/08/02 08:11:27;;;;;;;4.50;3.00;;;;;;;;;;5021085;28;20037;-71
2023/08/02 08:14:12;;;;;;;5.85;3.35;;;;;;;;;;5038304;28;20037;-81
2023/08/02 08:16:58;;;;;;;8.30;3.83;;;;;;;;;;5019119;28;20370;-80
2023/08/02 08:19:44;;;;;;;4.88;3.30;;;;;;;;;;5003343;28;20033;-77
2023/08/02 08:22:29;;;;;;;3.95;2.75;;;;;;;;;;5025291;28;20488;-78
2023/08/02 08:25:14;;;;;;;6.03;2.90;;;;;;;;;;5019754;28;20502;-81
2023/08/02 08:27:59;;;;;;;5.95;2.90;;;;;;;;;;5010285;28;20460;-80
2023/08/02 08:30:45;;;;;;;5.57;3.00;;;;;;;;;;5020849;28;20132;-73
2023/08/02 08:33:31;;;;;;;4.88;2.92;;;;;;;;;;5023361;28;20373;-75
2023/08/02 08:36:16;;;;;;;4.07;2.92;;;;;;;;;;5020275;28;20029;-83
2023/08/02 08:39:02;;;;;;;8.43;3.00;;;;;;;;;;5024768;28;20021;-80
2023/08/02 08:41:47;;;;;;;5.28;3.20;;;;;;;;;;5025087;28;20048;-80
2023/08/02 08:44:35;;;;;;;3.95;2.65;;;;;;;;;;5009137;28;20037;-76
2023/08/02 08:47:21;;;;;;;4.75;2.70;;;;;;;;;;5022994;28;20037;-76
2023/08/02 08:50:07;;;;;;;5.45;2.83;;;;;;;;;;5019462;28;20140;-69
2023/08/02 08:52:53;;;;;;;4.88;3.33;;;;;;;;;;5025524;28;20454;-77
2023/08/02 08:55:39;;;;;;;3.33;2.35;;;;;;;;;;5023297;28;20041;-77
2023/08/02 08:58:24;;;;;;;4.32;2.80;;;;;;;;;;5007663;28;20041;-76
2023/08/02 09:01:10;;;;;;;4.53;2.47;;;;;;;;;;5021903;28;20065;-79
2023/08/02 09:03:56;;;;;;;4.47;3.08;;;;;;;;;;5024780;28;20092;-76
2023/08/02 09:06:41;;;;;;;5.47;2.40;;;;;;;;;;5023232;28;20037;-77
2023/08/02 09:09:26;;;;;;;6.25;3.13;;;;;;;;;;5026377;28;20068;-77
2023/08/02 09:12:12;;;;;;;4.57;3.28;;;;;;;;;;5022200;28;20606;-76
2023/08/02 09:14:59;;;;;;;4.43;2.78;;;;;;;;;;5025335;28;20033;-76
2023/08/02 09:17:44;;;;;;;5.22;2.83;;;;;;;;;;5020460;28;20042;-75
2023/08/02 09:20:29;;;;;;;5.45;2.40;;;;;;;;;;5019492;28;20033;-71
2023/08/02 09:23:15;;;;;;;4.03;2.53;;;;;;;;;;5022704;28;20076;-70
2023/08/02 09:26:10;;;;;;;5.40;3.05;;;;;;;;;;5011411;28;20499;-73
2023/08/02 09:28:59;;;;;;;5.55;3.10;;;;;;;;;;5010688;28;20127;-71
2023/08/02 09:31:51;;;;;;;3.92;2.53;;;;;;;;;;5008397;28;20397;-75
2023/08/02 09:34:47;;;;;;;4.72;3.13;;;;;;;;;;5024401;28;20532;-72
2023/08/02 09:37:32;;;;;;;6.75;3.00;;;;;;;;;;5016354;28;20041;-71
2023/08/02 09:40:17;;;;;;;4.53;2.90;;;;;;;;;;5025713;28;20148;-70
2023/08/02 09:43:03;;;;;;;5.20;3.08;;;;;;;;;;5029056;28;20025;-71
2023/08/02 09:45:49;;;;;;;4.55;2.70;;;;;;;;;;5024186;28;20116;-72
2023/08/02 09:48:35;;;;;;;5.05;2.95;;;;;;;;;;5035421;28;20367;-75
2023/08/02 09:51:21;;;;;;;5.15;3.00;;;;;;;;;;5027807;28;20049;-75
2023/08/02 09:54:07;;;;;;;5.43;3.50;;;;;;;;;;5028590;28;20061;-75
2023/08/02 09:56:52;;;;;;;5.95;3.63;;;;;;;;;;5012385;28;20045;-79
2023/08/02 09:59:38;;;;;;;5.88;3.33;;;;;;;;;;5029847;28;20040;-75
2023/08/02 10:02:24;;;;;;;6.00;3.05;;;;;;;;;;5027786;28;20068;-74
2023/08/02 10:05:13;;;;;;;4.55;3.22;;;;;;;;;;5029209;28;20444;-79
2023/08/02 10:07:58;;;;;;;6.53;3.17;;;;;;;;;;5025694;28;20045;-76
2023/08/02 10:10:45;;;;;;;5.20;3.38;;;;;;;;;;5014097;28;20124;-74
2023/08/02 10:13:30;;;;;;;5.30;3.38;;;;;;;;;;5022101;28;20037;-72
2023/08/02 10:16:18;;;;;;;5.50;3.20;;;;;;;;;;5024826;28;20075;-72
2023/08/02 10:19:04;;;;;;;6.35;3.50;;;;;;;;;;5024159;28;20041;-72
2023/08/02 10:21:50;;;;;;;4.60;3.22;;;;;;;;;;5026531;28;20048;-75
2023/08/02 10:24:35;;;;;;;6.10;3.53;;;;;;;;;;5010966;28;20029;-76
2023/08/02 10:27:21;;;;;;;5.85;3.55;;;;;;;;;;5041601;28;20087;-79
2023/08/02 10:30:08;;;;;;;6.07;3.97;;;;;;;;;;5028453;28;20091;-79
2023/08/02 10:33:15;;;;;;;6.90;3.20;;;;;;;;;;5022271;28;20111;-78
2023/08/02 10:36:02;;;;;;;5.95;3.22;;;;;;;;;;5013280;28;20030;-81
2023/08/02 10:38:49;;;;;;;7.03;3.85;;;;;;;;;;5014340;28;20110;-81
2023/08/02 10:41:54;;;;;;;7.18;3.50;;;;;;;;;;5023681;28;20476;-70
2023/08/02 10:44:54;;;;;;;6.22;3.58;;;;;;;;;;5020550;28;20503;-70
2023/08/02 10:47:40;;;;;;;6.20;4.25;;;;;;;;;;5024077;28;20346;-70
2023/08/02 10:50:51;;;;;;;6.47;3.90;;;;;;;;;;5022688;28;20037;-72
2023/08/02 10:53:37;;;;;;;5.10;3.40;;;;;;;;;;5015900;28;20029;-70
2023/08/02 10:56:23;;;;;;;5.55;3.30;;;;;;;;;;5023898;28;20577;-71
2023/08/02 10:59:08;;;;;;;5.43;3.80;;;;;;;;;;5040858;28;20066;-70
2023/08/02 11:02:00;;;;;;;5.78;3.60;;;;;;;;;;5025045;28;20120;-69
2023/08/02 11:04:46;;;;;;;5.45;3.55;;;;;;;;;;5021045;28;20443;-70
2023/08/02 11:07:31;;;;;;;9.52;5.03;;;;;;;;;;5021922;28;20029;-68
2023/08/02 11:10:16;;;;;;;5.53;3.65;;;;;;;;;;5014588;28;20371;-68
2023/08/02 11:13:01;;;;;;;6.43;3.30;;;;;;;;;;5021310;28;20033;-68
2023/08/02 11:15:47;;;;;;;5.85;3.25;;;;;;;;;;5027572;28;20029;-67
2023/08/02 11:18:33;;;;;;;6.32;3.70;;;;;;;;;;5026037;28;20040;-73
2023/08/02 11:21:18;;;;;;;6.03;3.53;;;;;;;;;;5025725;28;20044;-71
2023/08/02 11:24:04;;;;;;;8.48;3.90;;;;;;;;;;5025315;28;20037;-70
2023/08/02 11:26:56;;;;;;;7.30;4.22;;;;;;;;;;5025237;28;20037;-71
2023/08/02 11:29:54;;;;;;;6.57;4.35;;;;;;;;;;5020127;28;20029;-70
2023/08/02 11:32:46;;;;;;;7.97;4.38;;;;;;;;;;5026930;28;20472;-71
2023/08/02 11:35:32;;;;;;;7.70;4.13;;;;;;;;;;5026920;28;20120;-73
2023/08/02 11:38:17;;;;;;;9.20;4.05;;;;;;;;;;5025642;28;20036;-72
2023/08/02 11:41:11;;;;;;;5.45;3.47;;;;;;;;;;5027448;28;20025;-72
2023/08/02 11:43:57;;;;;;;7.40;3.85;;;;;;;;;;5022696;28;20429;-73
2023/08/02 11:46:43;;;;;;;7.70;3.85;;;;;;;;;;5023598;28;20404;-71
2023/08/02 11:49:28;;;;;;;6.75;4.22;;;;;;;;;;5026507;28;20039;-72
2023/08/02 11:52:13;;;;;;;5.53;3.58;;;;;;;;;;5025221;28;20468;-73
2023/08/02 11:54:59;;;;;;;6.38;4.25;;;;;;;;;;5022731;28;20034;-73
2023/08/02 11:57:44;;;;;;;7.80;4.05;;;;;;;;;;5020976;28;20029;-75
2023/08/02 12:00:30;;;;;;;10.27;3.85;;;;;;;;;;5023249;28;20037;-78
2023/08/02 12:03:16;;;;;;;7.13;3.15;;;;;;;;;;5024148;28;20052;-76
2023/08/02 12:06:02;;;;;;;4.80;3.20;;;;;;;;;;5025093;28;20044;-76
2023/08/02 12:08:51;;;;;;;5.93;3.38;;;;;;;;;;5029980;28;20065;-75
2023/08/02 12:11:36;;;;;;;;;;;;;;;;;;5019858;28;20501;-72
2023/08/02 12:14:28;;;;;;;5.88;3.30;;;;;;;;;;5026538;28;19967;-69
2023/08/02 12:17:20;;;;;;;5.28;3.40;;;;;;;;;;5019387;28;20706;-70
2023/08/02 12:20:06;;;;;;;5.47;3.65;;;;;;;;;;5024609;28;20111;-69
2023/08/02 12:22:51;;;;;;;6.18;2.95;;;;;;;;;;5010748;28;20065;-71
2023/08/02 12:25:44;;;;;;;5.47;2.78;;;;;;;;;;5016011;28;20083;-71
2023/08/02 12:28:50;;;;;;;7.40;2.90;;;;;;;;;;5012119;28;20033;-73
2023/08/02 12:31:42;;;;;;;4.72;3.15;;;;;;;;;;5024422;28;20034;-71
2023/08/02 12:34:27;;;;;;;4.43;3.13;;;;;;;;;;5008960;28;20030;-83
2023/08/02 12:37:15;;;;;;;4.82;3.00;;;;;;;;;;5026308;28;20029;-81
2023/08/02 12:40:00;;;;;;;5.90;2.58;;;;;;;;;;5027199;28;20037;-83
2023/08/02 12:42:46;;;;;;;5.40;2.75;;;;;;;;;;5024499;28;20079;-66
2023/08/02 12:45:32;;;;;;;4.35;2.65;;;;;;;;;;5023684;28;20029;-69
2023/08/02 12:48:17;;;;;;;6.07;2.88;;;;;;;;;;5023107;28;20032;-72
2023/08/02 12:51:02;;;;;;;4.80;2.42;;;;;;;;;;5025239;28;20034;-70
2023/08/02 12:53:48;;;;;;;4.32;2.83;;;;;;;;;;5020151;28;20030;-68
2023/08/02 12:56:33;;;;;;;6.40;2.75;;;;;;;;;;5021250;28;20022;-69
2023/08/02 12:59:18;;;;;;;3.75;2.35;;;;;;;;;;5024247;28;20033;-68
2023/08/02 13:02:03;;;;;;;5.85;2.97;;;;;;;;;;5021444;28;20068;-66
2023/08/02 13:04:49;;;;;;;5.00;2.33;;;;;;;;;;5009051;28;20037;-66
2023/08/02 13:07:34;;;;;;;5.25;2.58;;;;;;;;;;5026206;28;20041;-67
2023/08/02 13:10:19;;;;;;;4.28;2.70;;;;;;;;;;5019173;28;20148;-67
2023/08/02 13:13:04;;;;;;;7.25;3.08;;;;;;;;;;5024400;28;20061;-68
2023/08/02 13:15:50;;;;;;;3.80;2.90;;;;;;;;;;5023670;28;20416;-69
2023/08/02 13:18:35;;;;;;;6.72;2.42;;;;;;;;;;5027907;28;20053;-70
2023/08/02 13:21:20;;;;;;;5.55;2.45;;;;;;;;;;5028193;28;20034;-71
2023/08/02 13:24:05;;;;;;;7.88;2.63;;;;;;;;;;5037661;28;20037;-68
2023/08/02 13:26:50;;;;;;;3.58;2.53;;;;;;;;;;5019070;28;20037;-67
2023/08/02 13:29:36;;;;;;;5.05;2.95;;;;;;;;;;5027832;28;20041;-68
2023/08/02 13:32:21;;;;;;;6.32;3.08;;;;;;;;;;5040126;28;20041;-65
2023/08/02 13:35:07;;;;;;;5.20;2.53;;;;;;;;;;5026676;28;20033;-75
2023/08/02 13:37:52;;;;;;;4.70;2.55;;;;;;;;;;5027412;28;20468;-80
2023/08/02 13:40:38;;;;;;;4.97;2.80;;;;;;;;;;5028186;28;20431;-84
2023/08/02 13:43:24;;;;;;;5.05;2.50;;;;;;;;;;5020740;28;20045;-76
2023/08/02 13:46:10;;;;;;;5.30;2.17;;;;;;;;;;5028362;28;20045;-74
2023/08/02 13:48:55;;;;;;;3.67;2.05;;;;;;;;;;5026886;28;20088;-70
2023/08/02 13:51:40;;;;;;;3.00;2.00;;;;;;;;;;5029427;28;20331;-72
2023/08/02 13:54:25;;;;;;;5.68;2.35;;;;;;;;;;5015040;28;20037;-69
2023/08/02 13:57:11;;;;;;;5.70;3.67;;;;;;;;;;5023244;28;20048;-71
2023/08/02 13:59:56;;;;;;;3.60;1.83;;;;;;;;;;5025315;28;20410;-70
2023/08/02 14:02:41;;;;;;;3.85;2.13;;;;;;;;;;5021221;28;20092;-70
2023/08/02 14:05:26;;;;;;;6.05;2.33;;;;;;;;;;5027784;28;20068;-72
2023/08/02 14:08:11;;;;;;;3.08;1.70;;;;;;;;;;5028263;28;20502;-73
2023/08/02 14:10:57;;;;;;;4.20;1.92;;;;;;;;;;5026966;28;20037;-74
2023/08/02 14:13:42;;;;;;;3.20;1.60;;;;;;;;;;5025055;28;20387;-71
2023/08/02 14:16:27;;;;;;;2.70;1.60;;;;;;;;;;5027223;28;20052;-70
2023/08/02 14:19:12;;;;;;;6.43;2.35;;;;;;;;;;5026646;28;20419;-72
2023/08/02 14:21:58;;;;;;;3.25;2.00;;;;;;;;;;5026197;28;20087;-72
2023/08/02 14:24:43;;;;;;;3.20;2.20;;;;;;;;;;5026336;28;20030;-73
2023/08/02 14:27:28;;;;;;;3.00;1.90;;;;;;;;;;5022280;28;20034;-74
2023/08/02 14:30:13;;;;;;;2.85;2.00;;;;;;;;;;5013144;28;20476;-73
2023/08/02 14:32:58;;;;;;;4.93;1.70;;;;;;;;;;5008871;28;20034;-73
2023/08/02 14:35:44;;;;;;;4.50;1.80;;;;;;;;;;5025898;28;20056;-72
2023/08/02 14:38:31;;;;;;;3.17;2.35;;;;;;;;;;5027168;28;20037;-69
2023/08/02 14:41:16;;;;;;;3.53;2.03;;;;;;;;;;5026116;28;20042;-72
2023/08/02 14:44:01;;;;;;;5.13;2.25;;;;;;;;;;5024795;28;20029;-76
2023/08/02 14:46:47;;;;;;;2.58;1.95;;;;;;;;;;5010719;28;20106;-75
2023/08/02 14:49:32;;;;;;;3.97;2.13;;;;;;;;;;5027484;28;20453;-75
2023/08/02 14:52:18;;;;;;;2.75;1.90;;;;;;;;;;5024966;28;20052;-79
2023/08/02 14:55:03;;;;;;;2.58;1.70;;;;;;;;;;5008599;28;20026;-81
2023/08/02 14:57:48;;;;;;;2.97;2.20;;;;;;;;;;5025052;28;20033;-74
2023/08/02 15:00:34;;;;;;;3.20;2.10;;;;;;;;;;5026228;28;20041;-81
2023/08/02 15:03:19;;;;;;;3.58;2.17;;;;;;;;;;5009644;28;20052;-79
2023/08/02 15:06:06;;;;;;;4.00;1.70;;;;;;;;;;5026529;28;20033;-80
2023/08/02 15:08:52;;;;;;;2.33;1.75;;;;;;;;;;5022745;28;20041;-80
2023/08/02 15:11:37;;;;;;;3.67;2.28;;;;;;;;;;5014913;28;20048;-80
2023/08/02 15:14:23;;;;;;;3.22;2.05;;;;;;;;;;5027934;28;20091;-81
2023/08/02 15:17:08;;;;;;;5.78;1.48;;;;;;;;;;5009606;28;20539;-73
2023/08/02 15:19:54;;;;;;;2.05;1.63;;;;;;;;;;5008137;28;20034;-71
2023/08/02 15:22:40;;;;;;;4.55;2.00;;;;;;;;;;5026758;28;20045;-69
2023/08/02 15:25:25;;;;;;;4.75;2.00;;;;;;;;;;5024032;28;20396;-69
2023/08/02 15:28:10;;;;;;;3.03;1.70;;;;;;;;;;5022949;28;20044;-71
2023/08/02 15:30:55;;;;;;;3.35;1.98;;;;;;;;;;5010142;28;20041;-68
2023/08/02 15:33:41;;;;;;;2.97;1.83;;;;;;;;;;5023505;28;20104;-70
2023/08/02 15:36:28;;;;;;;6.43;1.77;;;;;;;;;;5035151;28;20473;-69
2023/08/02 15:39:13;;;;;;;2.60;2.03;;;;;;;;;;5010020;28;20048;-81
2023/08/02 15:41:58;;;;;;;3.25;2.05;;;;;;;;;;5023698;28;20037;-81
2023/08/02 15:44:44;;;;;;;3.95;1.95;;;;;;;;;;5025243;28;20042;-83
2023/08/02 15:47:30;;;;;;;3.80;1.80;;;;;;;;;;5018934;28;20476;-86
2023/08/02 15:50:15;;;;;;;2.38;1.73;;;;;;;;;;5023262;28;20045;-80
2023/08/02 15:53:00;;;;;;;3.58;2.25;;;;;;;;;;5025376;28;20272;-78
2023/08/02 15:55:45;;;;;;;4.47;2.03;;;;;;;;;;5019175;28;20041;-68
2023/08/02 15:58:31;;;;;;;3.33;2.05;;;;;;;;;;5000824;28;20384;-69
2023/08/02 16:01:16;;;;;;;2.80;1.60;;;;;;;;;;5023716;28;20033;-71
2023/08/02 16:04:01;;;;;;;3.28;2.05;;;;;;;;;;5026499;28;20056;-70
2023/08/02 16:06:46;;;;;;;6.28;2.17;;;;;;;;;;5008793;28;20042;-70
2023/08/02 16:09:32;;;;;;;3.15;1.95;;;;;;;;;;5008701;28;20029;-70
2023/08/02 16:12:17;;;;;;;3.88;2.08;;;;;;;;;;5026013;28;20060;-74
2023/08/02 16:15:02;;;;;;;2.47;1.80;;;;;;;;;;5014616;28;20059;-71
2023/08/02 16:17:48;;;;;;;8.80;2.17;;;;;;;;;;5026935;28;20692;-72
2023/08/02 16:20:33;;;;;;;4.80;2.13;;;;;;;;;;5023594;28;20072;-73
2023/08/02 16:23:18;;;;;;;5.85;2.15;;;;;;;;;;5010227;28;20057;-73
2023/08/02 16:26:04;;;;;;;3.10;2.10;;;;;;;;;;5025793;28;20029;-73
2023/08/02 16:28:49;;;;;;;4.90;2.70;;;;;;;;;;5023518;28;20033;-73
2023/08/02 16:31:34;;;;;;;3.72;1.95;;;;;;;;;;5023930;28;20038;-74
2023/08/02 16:34:19;;;;;;;4.18;2.60;;;;;;;;;;5026869;28;20504;-75